Tiempo atmosférico en la estación meteorológica de Espiel, Córdoba (465 m.)



Fecha
DESCASC
Temp. máxima en grados centígrados (hora)
DESCASC
Temp. mínima en grados centígrados (hora)
DESCASC
Temp. media en grados centígrados
DESCASC
Racha de viento máxima en m/sg (hora)
DESCASC
Velocidad máxima media en intervalos de 10 minutos(hora)
DESCASC
Precipitaciones diarias en mm
DESCASC
Precipitaciones de 00:00 a 06:00 en mm
DESCASC
Precipitaciones de 06:00 a 12:00 en mm
DESCASC
Precipitaciones de 12:00 a 18:00 en mm
DESCASC
Precipitaciones de 18:00 a 24:00 en mm
DESCASC
18-02-2018 16.5 (15:00) 2.8 (05:20) 9.6 5.28 (17:50) 2.5 (17:50) 0 0 0 0 0
17-02-2018 18.8 (17:00) 0.7 (08:00) 9.7 6.11 (15:00) 3.89 (15:10) 0 0 0 0 0
16-02-2018 20.2 (16:30) 2.1 (06:50) 11.2 5 (17:20) 2.78 (17:50) 0 0 0 0 0
15-02-2018 17.3 (16:30) 1.8 (00:00) 9.5 6.39 (15:50) 3.06 (16:10) 0 0 0 0 0
14-02-2018 14.8 (16:30) -0.7 (-00:0) 7.1 5.56 (16:00) 3.33 (16:00) 0 0 0 0 0
13-02-2018 13.3 (17:00) -2.3 (-00:0) 5.5 7.78 (15:20) 3.89 (15:00) 0 0 0 0 0
12-02-2018 13.4 (16:40) 0.2 (00:00) 6.8 10 (15:30) 5.56 (16:10) 2.8 0 2.6 0.2 0
11-02-2018 17 (16:40) -2.2 (-00:0) 7.4 6.67 (20:40) 3.33 (17:30) 0 0 0 0 0
10-02-2018 12.2 (16:20) 0.3 (00:00) 6.2 7.22 (17:30) 3.33 (17:30) 0 0 0 0 0
09-02-2018 10.3 (15:00) -5.5 (-00:0) 2.4 5.28 (13:10) 3.33 (13:10) 0 0 0 0 0
08-02-2018 10.1 (16:20) -4.1 (-00:0) 3 7.5 (14:50) 3.33 (15:40) 0 0 0 0 0
07-02-2018 9 (14:40) -0.6 (-00:0) 4.2 7.78 (13:50) 4.17 (13:00) 0 0 0 0 0
06-02-2018 8.2 (15:30) 0.4 (00:00) 4.3 9.72 (12:20) 3.89 (12:40) 0.2 0 0 0.2 0
05-02-2018 7.2 (17:10) 0.3 (00:00) 3.7 5.28 (14:50) 2.78 (14:20) 0.4 0 0.2 0.2 0
04-02-2018 8.5 (16:10) 1.5 (00:00) 5 7.78 (19:20) 3.33 (16:40) 0.6 0.6 0 0 0
03-02-2018 11.5 (16:30) -4.7 (-00:0) 3.4 7.5 (15:50) 3.89 (15:20) 0 0 0 0 0
02-02-2018 10.2 (16:30) 0.3 (00:00) 5.2 10.56 (16:20) 5 (16:50) 0 0 0 0 0
01-02-2018 14.6 (16:20) 0.5 (00:00) 7.6 14.72 (23:00) 7.22 (23:00) 0.6 0 0 0 0.6
31-01-2018 17.1 (17:30) 1.8 (00:00) 9.5 2.78 (16:00) 1.67 (16:10) 0 0 0 0 0
30-01-2018 17.1 (15:30) 0.8 (00:00) 9 5 (14:30) 2.22 (14:00) 0 0 0 0 0
29-01-2018 18 (15:10) 2.4 (00:00) 10.2 9.17 (10:10) 4.17 (15:20) 0 0 0 0 0
28-01-2018 13.7 (15:50) 1.4 (00:00) 7.5 13.89 (16:30) 8.33 (16:30) 0 0 0 0 0
27-01-2018 10.7 (16:10) -0.1 (00:00) 5.3 10.28 (17:20) 4.17 (12:30) 0 0 0 0 0
26-01-2018 11.1 (15:50) 0.1 (00:00) 5.6 9.44 (15:10) 4.17 (15:10) 0.2 0 0 0.2 0
25-01-2018 12 (13:20) 3.3 (00:00) 7.6 7.5 (19:20) 3.61 (12:20) 2.4 0 0 0.2 2.2
24-01-2018 19.7 (15:50) 1.8 (00:00) 10.8 3.33 (15:00) 1.67 (15:00) 0.2 0 0.2 0 0
23-01-2018 17.8 (16:50) 2.9 (00:00) 10.3 3.33 (05:40) 1.39 (04:40) 0 0 0 0 0
22-01-2018 16.8 (17:10) 2.7 (00:00) 9.7 5 (17:40) 2.78 (18:00) 0.2 0 0.2 0 0

Gráficas

Temp. máximas Temp. mínimas Temp. medias Precipitaciones Rachas de viento máximas Velocidades máximas media en intervalos de 10 minutos

Datos horarios

Fecha y hora oficial Temperatura (ºC) Velocidad del viento (km/h) Dirección del viento Racha (km/h) Dirección de racha Precipitación (mm) Presión (hPa) Tendencia (hPa) Humedad (%)
2018-02-20 23:00:00 7.3 0 Calma 5 Oeste 0 -- -- 77
2018-02-20 22:00:00 9.4 3 Oeste 14 Norte 0 -- -- 67
2018-02-20 21:00:00 12.9 5 Nordeste 17 Este 0 -- -- 53
2018-02-20 20:00:00 11.4 3 Este 18 Norte 0 -- -- 58
2018-02-20 19:00:00 15.7 6 Nordeste 22 Nordeste 0 -- -- 45
2018-02-20 18:00:00 17.4 8 Nordeste 25 Nordeste 0 -- -- 40
2018-02-20 17:00:00 18 10 Nordeste 29 Nordeste 0 -- -- 39
2018-02-20 16:00:00 18.2 9 Este 24 Nordeste 0 -- -- 38
2018-02-20 15:00:00 17.8 8 Este 24 Nordeste 0 -- -- 42
2018-02-20 14:00:00 16.9 8 Este 23 Este 0 -- -- 43
2018-02-20 13:00:00 16.2 6 Este 20 Sudeste 0 -- -- 46
2018-02-20 12:00:00 14.3 4 Oeste 12 Oeste 0 -- -- 53
2018-02-20 11:00:00 9.5 4 Noroeste 6 Noroeste 0 -- -- 74
2018-02-20 10:00:00 6.7 0 Calma 4 Oeste 0 -- -- 80
2018-02-20 09:00:00 3 0 Calma 3 Norte 0 -- -- 97
2018-02-20 08:00:00 0.6 0 Calma 2 Nordeste 0 -- -- 95
2018-02-20 07:00:00 0.9 0 Calma 5 Sudeste 0 -- -- 94
2018-02-20 06:00:00 1.2 0 Calma 6 Nordeste 0 -- -- 94
2018-02-20 05:00:00 1.6 0 Calma 5 Nordeste 0 -- -- 94
2018-02-20 04:00:00 1.7 0 Calma 3 Sur 0 -- -- 94
2018-02-20 03:00:00 2 0 Calma 4 Sur 0 -- -- 92
2018-02-20 02:00:00 2.6 0 Calma 4 Este 0 -- -- 92
2018-02-20 01:00:00 2.8 0 Calma 2 Sur 0 -- -- 91
2018-02-20 00:00:00 3.5 0 Calma 3 Sur 0 -- -- 88
2018-02-19 23:00:00 4.5 0 Calma 5 Sur 0 -- -- 81
2018-02-19 22:00:00 5.8 5 Sur 6 Sur 0 -- -- 80
2018-02-19 21:00:00 6.8 0 Calma 6 Este 0 -- -- 72
2018-02-19 20:00:00 9.2 3 Sudeste 10 Este 0 -- -- 61
2018-02-19 19:00:00 14 4 Este 21 Este 0 -- -- 47
2018-02-19 18:00:00 15.5 6 Este 19 Este 0 -- -- 44
2018-02-19 17:00:00 16.2 5 Este 18 Este 0 -- -- 41
2018-02-19 16:00:00 16.2 7 Este 18 Este 0 -- -- 41
2018-02-19 15:00:00 15.9 8 Sudeste 19 Este 0 -- -- 42
2018-02-19 14:00:00 15.7 8 Sur 25 Sur 0 -- -- 44
2018-02-19 13:00:00 14.4 6 Norte 25 Sudoeste 0 -- -- 46
2018-02-19 12:00:00 11.5 5 Oeste 9 Oeste 0 -- -- 52
2018-02-19 11:00:00 7.7 2 Sudoeste 9 Norte 0 -- -- 69
2018-02-19 10:00:00 4.6 0 Calma 3 Noroeste 0 -- -- 77
2018-02-19 09:00:00 0.4 2 Nordeste 4 Nordeste 0 -- -- 92
2018-02-19 08:00:00 0.2 0 Calma 5 Nordeste 0 -- -- 91
2018-02-19 07:00:00 -0.3 0 Calma 3 Nordeste 0 -- -- 90
2018-02-19 06:00:00 -0.4 2 Sur 4 Sudeste 0 -- -- 89
2018-02-19 05:00:00 -0.2 2 Sur 4 Sudeste 0 -- -- 88
2018-02-19 04:00:00 0.3 2 Nordeste 4 Norte 0 -- -- 85
2018-02-19 03:00:00 1 0 Calma 3 Sudeste 0 -- -- 88
2018-02-19 02:00:00 1.6 0 Calma 4 Sudeste 0 -- -- 84
2018-02-19 01:00:00 2.6 0 Calma 3 Sudeste 0 -- -- 79
2018-02-19 00:00:00 3.7 3 Sur 4 Sur 0 -- -- 70
2018-02-18 23:00:00 6.7 3 Sudeste 13 Sudeste 0 -- -- 58
2018-02-18 22:00:00 9.1 6 Sudeste 13 Sur 0 -- -- 50
2018-02-18 21:00:00 6.9 0 Calma 8 Este 0 -- -- 71
2018-02-18 20:00:00 9.7 5 Este 9 Este 0 -- -- 61
2018-02-18 19:00:00 12.8 4 Este 19 Sudeste 0 -- -- 53
2018-02-18 18:00:00 16.1 6 Este 19 Nordeste 0 -- -- 43
2018-02-18 17:00:00 15.7 2 Norte 12 Este 0 -- -- 48
2018-02-18 16:00:00 15.4 0 Calma 9 Noroeste 0 -- -- 51
2018-02-18 15:00:00 16.5 4 Noroeste 15 Norte 0 -- -- 50
2018-02-18 14:00:00 15.7 7 Noroeste 12 Noroeste 0 -- -- 51
2018-02-18 13:00:00 14.5 6 Noroeste 12 Oeste 0 -- -- 55
2018-02-18 12:00:00 12.5 5 Noroeste 10 Noroeste 0 -- -- 65
2018-02-18 11:00:00 9.5 3 Oeste 5 Oeste 0 -- -- 81
2018-02-18 10:00:00 6.9 0 Calma 4 Norte 0 -- -- 93
2018-02-18 09:00:00 5.3 0 Calma 4 Este 0 -- -- 97
2018-02-18 08:00:00 4.4 0 Calma 3 Este 0 -- -- 96
2018-02-18 07:00:00 4.1 0 Calma 3 Sudeste 0 -- -- 96
2018-02-18 06:00:00 3.1 0 Calma 3 Norte 0 -- -- 96
2018-02-18 05:00:00 3 2 Sudeste 4 Nordeste 0 -- -- 95
2018-02-18 04:00:00 3.1 0 Calma 3 Sudeste 0 -- -- 95
2018-02-18 03:00:00 3.4 2 Norte 3 Nordeste 0 -- -- 94
2018-02-18 02:00:00 3.6 3 Sur 4 Sudeste 0 -- -- 94
2018-02-18 01:00:00 3.9 0 Calma 3 Sur 0 -- -- 92
2018-02-18 00:00:00 4.6 2 Sudeste 4 Sur 0 -- -- 92
2018-02-17 23:00:00 5.6 3 Sur 6 Sur 0 -- -- 92
2018-02-17 22:00:00 6.1 0 Calma 4 Norte 0 -- -- 88
2018-02-17 21:00:00 7.5 0 Calma 4 Nordeste 0 -- -- 84
2018-02-17 20:00:00 9.7 0 Calma 4 Norte 0 -- -- 76
2018-02-17 19:00:00 14.2 2 Sudoeste 9 Sudoeste 0 -- -- 63
2018-02-17 18:00:00 16.4 4 Sudoeste 19 Norte 0 -- -- 57
2018-02-17 17:00:00 18.8 9 Norte 22 Norte 0 -- -- 40
2018-02-17 16:00:00 18.6 14 Norte 22 Norte 0 -- -- 37
2018-02-17 15:00:00 18.6 12 Norte 22 Norte 0 -- -- 40
2018-02-17 14:00:00 17.4 9 Noroeste 17 Norte 0 -- -- 46
2018-02-17 13:00:00 16 5 Oeste 9 Oeste 0 -- -- 55
2018-02-17 12:00:00 12.3 3 Noroeste 6 Noroeste 0 -- -- 71
2018-02-17 11:00:00 8.8 2 Oeste 5 Oeste 0 -- -- 82
2018-02-17 10:00:00 6.1 0 Calma 3 Noroeste 0 -- -- 91
2018-02-17 09:00:00 2.8 0 Calma 2 Nordeste 0 -- -- 98
2018-02-17 08:00:00 0.7 0 Calma 4 Sur 0 -- -- 95
2018-02-17 07:00:00 1 0 Calma 2 Sur 0 -- -- 95
2018-02-17 06:00:00 1.4 0 Calma 3 Nordeste 0 -- -- 95
2018-02-17 05:00:00 1.9 0 Calma 3 Sur 0 -- -- 95
2018-02-17 04:00:00 2.3 0 Calma 3 Sur 0 -- -- 94
2018-02-17 03:00:00 2.9 0 Calma 4 Sur 0 -- -- 93
2018-02-17 02:00:00 3.5 3 Sudeste 8 Oeste 0 -- -- 92
2018-02-17 01:00:00 4.1 2 Nordeste 3 Norte 0 -- -- 92
2018-02-17 00:00:00 4.6 3 Sur 4 Sudoeste 0 -- -- 90
2018-02-16 23:00:00 5.6 0 Calma 2 Sur 0 -- -- 87
2018-02-16 22:00:00 6.7 0 Calma 5 Nordeste 0 -- -- 82
2018-02-16 21:00:00 8.4 3 Nordeste 6 Nordeste 0 -- -- 74
2018-02-16 20:00:00 10.8 3 Sur 5 Sur 0 -- -- 65
2018-02-16 19:00:00 16.6 4 Nordeste 17 Norte 0 -- -- 50
2018-02-16 18:00:00 19.4 7 Nordeste 18 Norte 0 -- -- 45
2018-02-16 17:00:00 20.1 9 Norte 17 Norte 0 -- -- 46
2018-02-16 16:00:00 19.9 5 Nordeste 15 Nordeste 0 -- -- 45
2018-02-16 15:00:00 19.2 7 Norte 16 Noroeste 0 -- -- 46
2018-02-16 14:00:00 17.5 7 Noroeste 12 Noroeste 0 -- -- 55
2018-02-16 13:00:00 14.7 4 Oeste 6 Oeste 0 -- -- 69
2018-02-16 12:00:00 9.6 3 Oeste 5 Oeste 0 -- -- 93
2018-02-16 11:00:00 5.8 0 Calma 3 Noroeste 0 -- -- 97
2018-02-16 10:00:00 4.2 0 Calma 3 Sudoeste 0 -- -- 97
2018-02-16 09:00:00 3.3 0 Calma 2 Nordeste 0 -- -- 97
2018-02-16 08:00:00 3.5 0 Calma 2 Sur 0 -- -- 97
2018-02-16 07:00:00 2.1 0 Calma 4 Nordeste 0 -- -- 96
2018-02-16 06:00:00 2.2 0 Calma 3 Sur 0 -- -- 95
2018-02-16 05:00:00 2.8 0 Calma 3 Norte 0 -- -- 95
2018-02-16 04:00:00 3.4 0 Calma 3 Este 0 -- -- 95
2018-02-16 03:00:00 3.8 0 Calma 3 Sudeste 0 -- -- 95
2018-02-16 02:00:00 3.9 0 Calma 3 Sur 0 -- -- 94
2018-02-16 01:00:00 4.9 3 Nordeste 5 Norte 0 -- -- 93
2018-02-16 00:00:00 5.3 0 Calma 4 Nordeste 0 -- -- 92
2018-02-15 23:00:00 6.2 3 Nordeste 5 Nordeste 0 -- -- 92
2018-02-15 22:00:00 7 3 Este 4 Sur 0 -- -- 90
2018-02-15 21:00:00 8.1 2 Este 4 Este 0 -- -- 85
2018-02-15 20:00:00 10.4 3 Este 6 Este 0 -- -- 77
2018-02-15 19:00:00 14.3 4 Este 16 Nordeste 0 -- -- 64
2018-02-15 18:00:00 16.3 7 Nordeste 19 Nordeste 0 -- -- 58
2018-02-15 17:00:00 17.3 7 Nordeste 19 Norte 0 -- -- 55
2018-02-15 16:00:00 17 9 Norte 23 Norte 0 -- -- 56
2018-02-15 15:00:00 15.8 6 Oeste 15 Nordeste 0 -- -- 60
2018-02-15 14:00:00 14.6 5 Oeste 14 Noroeste 0 -- -- 64
2018-02-15 13:00:00 12.8 4 Sudeste 14 Este 0 -- -- 70
2018-02-15 12:00:00 9.6 2 Noroeste 5 Oeste 0 -- -- 81
2018-02-15 11:00:00 8 2 Oeste 4 Oeste 0 -- -- 86
2018-02-15 10:00:00 6.4 0 Calma 3 Noroeste 0 -- -- 89
2018-02-15 09:00:00 5.6 0 Calma 2 Nordeste 0 -- -- 93
2018-02-15 08:00:00 5.2 0 Calma 4 Sudeste 0 -- -- 94
2018-02-15 07:00:00 4.6 0 Calma 4 Noroeste 0 -- -- 96
2018-02-15 06:00:00 3.8 0 Calma 4 Sudeste 0 -- -- 96
2018-02-15 05:00:00 2.6 3 Sur 5 Sur 0 -- -- 96
2018-02-15 04:00:00 1.8 0 Calma 2 Sudeste 0 -- -- 95
2018-02-15 03:00:00 2.1 0 Calma 3 Sur 0 -- -- 94
2018-02-15 02:00:00 2.6 0 Calma 4 Oeste 0 -- -- 93
2018-02-15 01:00:00 3 0 Calma 3 Sur 0 -- -- 91
2018-02-15 00:00:00 3.9 0 Calma 6 Sudeste 0 -- -- 91
2018-02-14 23:00:00 4.5 2 Este 5 Sur 0 -- -- 88
2018-02-14 22:00:00 5.5 3 Este 4 Este 0 -- -- 85
2018-02-14 21:00:00 6 0 Calma 4 Sur 0 -- -- 82
2018-02-14 20:00:00 7.5 0 Calma 4 Sur 0 -- -- 75
2018-02-14 19:00:00 12.2 4 Nordeste 10 Nordeste 0 -- -- 58
2018-02-14 18:00:00 13.6 5 Nordeste 15 Norte 0 -- -- 52
2018-02-14 17:00:00 14.7 8 Nordeste 20 Noroeste 0 -- -- 48
2018-02-14 16:00:00 14.5 12 Norte 20 Norte 0 -- -- 48
2018-02-14 15:00:00 14 10 Noroeste 18 Noroeste 0 -- -- 51
2018-02-14 14:00:00 12.9 6 Noroeste 12 Oeste 0 -- -- 55
2018-02-14 13:00:00 11.4 4 Norte 11 Noroeste 0 -- -- 56
2018-02-14 12:00:00 8.3 3 Oeste 5 Oeste 0 -- -- 75
2018-02-14 11:00:00 4.6 2 Oeste 5 Oeste 0 -- -- 89
2018-02-14 10:00:00 3 0 Calma 3 Sur 0 -- -- 95
2018-02-14 09:00:00 0.5 0 Calma 2 Sur 0 -- -- 96
2018-02-14 08:00:00 -0.6 0 Calma 2 Sur 0 -- -- 95
2018-02-14 07:00:00 -0.1 0 Calma 2 Este 0 -- -- 94
2018-02-14 06:00:00 0.3 2 Sur 3 Sudeste 0 -- -- 95
2018-02-14 05:00:00 0.2 0 Calma 2 Norte 0 -- -- 95
2018-02-14 04:00:00 -0.6 0 Calma 2 Sudeste 0 -- -- 93
2018-02-14 03:00:00 -0.2 0 Calma 2 Sur 0 -- -- 93
2018-02-14 02:00:00 0 0 Calma 3 Nordeste 0 -- -- 92
2018-02-14 01:00:00 0.6 2 Sur 3 Sur 0 -- -- 90
2018-02-14 00:00:00 1.3 2 Nordeste 4 Sudeste 0 -- -- 87
2018-02-13 23:00:00 1.9 0 Calma 4 Nordeste 0 -- -- 84
2018-02-13 22:00:00 3 3 Nordeste 4 Nordeste 0 -- -- 74
2018-02-13 21:00:00 4.3 0 Calma 5 Noroeste 0 -- -- 68
2018-02-13 20:00:00 8 3 Nordeste 14 Este 0 -- -- 52
2018-02-13 19:00:00 10.1 8 Nordeste 21 Nordeste 0 -- -- 43
2018-02-13 18:00:00 12.5 9 Nordeste 20 Norte 0 -- -- 33
2018-02-13 17:00:00 13.3 9 Norte 22 Norte 0 -- -- 34
2018-02-13 16:00:00 13 11 Nordeste 28 Norte 0 -- -- 32
2018-02-13 15:00:00 12.5 14 Norte 23 Norte 0 -- -- 30
2018-02-13 14:00:00 11.8 6 Norte 20 Norte 0 -- -- 41
2018-02-13 13:00:00 10.5 6 Norte 15 Noroeste 0 -- -- 46
2018-02-13 12:00:00 8.6 4 Noroeste 9 Norte 0 -- -- 61
2018-02-13 11:00:00 5.7 2 Noroeste 5 Oeste 0 -- -- 78
2018-02-13 10:00:00 3.5 0 Calma 3 Oeste 0 -- -- 82
2018-02-13 09:00:00 -0.8 0 Calma 2 Nordeste 0 -- -- 97
2018-02-13 08:00:00 -2.2 0 Calma 2 Sur 0 -- -- 94
2018-02-13 07:00:00 -1.9 0 Calma 3 Nordeste 0 -- -- 93
2018-02-13 06:00:00 -1.5 0 Calma 2 Nordeste 0 -- -- 93
2018-02-13 05:00:00 -1.1 0 Calma 3 Sudeste 0 -- -- 93
2018-02-13 04:00:00 -1.2 0 Calma 5 Nordeste 0 -- -- 89
2018-02-13 03:00:00 -1.1 0 Calma 5 Norte 0 -- -- 88
2018-02-13 02:00:00 0.4 2 Sudoeste 9 Sudeste 0 -- -- 87
2018-02-13 01:00:00 -0.2 0 Calma 4 Sur 0 -- -- 88
2018-02-13 00:00:00 0.2 3 Norte 6 Norte 0 -- -- 83
2018-02-12 23:00:00 0.9 0 Calma 5 Norte 0 -- -- 82
2018-02-12 22:00:00 2.2 3 Este 4 Este 0 -- -- 77
2018-02-12 21:00:00 4.1 4 Nordeste 10 Nordeste 0 -- -- 69
2018-02-12 20:00:00 7.1 6 Nordeste 20 Nordeste 0 -- -- 56
2018-02-12 19:00:00 10.3 9 Nordeste 25 Norte 0 -- -- 46
2018-02-12 18:00:00 12.5 15 Norte 30 Nordeste 0 -- -- 45
2018-02-12 17:00:00 13.1 17 Norte 35 Nordeste 0 -- -- 45
2018-02-12 16:00:00 13.2 19 Norte 36 Norte 0 -- -- 51
2018-02-12 15:00:00 13.1 14 Nordeste 33 Norte 0 -- -- 55
2018-02-12 14:00:00 11.9 15 Norte 31 Norte 0 -- -- 70
2018-02-12 13:00:00 10.6 9 Norte 23 Norte 0.2 -- -- 84
2018-02-12 12:00:00 10.8 9 Norte 23 Norte 0 -- -- 84
2018-02-12 11:00:00 9.5 2 Sudoeste 4 Sudoeste 0.6 -- -- 92
2018-02-12 10:00:00 8.9 2 Nordeste 10 Nordeste 1.4 -- -- 93
2018-02-12 09:00:00 9 5 Nordeste 10 Nordeste 0.6 -- -- 92
2018-02-12 08:00:00 9.6 5 Nordeste 13 Norte 0 -- -- 82
2018-02-12 07:00:00 9.9 7 Nordeste 15 Nordeste 0 -- -- 80
2018-02-12 06:00:00 10.2 5 Nordeste 19 Nordeste 0 -- -- 81
2018-02-12 05:00:00 10.5 7 Nordeste 17 Nordeste 0 -- -- 83
2018-02-12 04:00:00 10.4 4 Nordeste 8 Nordeste 0 -- -- 81
2018-02-12 03:00:00 11.1 3 Norte 9 Nordeste 0 -- -- 80
2018-02-12 02:00:00 11.1 3 Norte 11 Nordeste 0 -- -- 81
2018-02-12 01:00:00 11.5 4 Norte 14 Norte 0 -- -- 78
2018-02-12 00:00:00 11.8 2 Nordeste 11 Norte 0 -- -- 79
2018-02-11 23:00:00 11.8 3 Nordeste 15 Nordeste 0 -- -- 78
2018-02-11 22:00:00 12.1 6 Nordeste 14 Norte 0 -- -- 75
2018-02-11 21:00:00 12.2 6 Norte 24 Nordeste 0 -- -- 76
2018-02-11 20:00:00 12.9 4 Nordeste 12 Norte 0 -- -- 68
2018-02-11 19:00:00 13.9 7 Nordeste 21 Nordeste 0 -- -- 63
2018-02-11 18:00:00 16.1 11 Norte 22 Norte 0 -- -- 55
2018-02-11 17:00:00 16.8 9 Norte 21 Norte 0 -- -- 54
2018-02-11 16:00:00 16.6 12 Nordeste 22 Norte 0 -- -- 52
2018-02-11 15:00:00 15.3 11 Norte 21 Norte 0 -- -- 52
2018-02-11 14:00:00 14.1 9 Norte 19 Norte 0 -- -- 53
2018-02-11 13:00:00 12.3 5 Noroeste 13 Norte 0 -- -- 55
2018-02-11 12:00:00 9.1 5 Noroeste 11 Noroeste 0 -- -- 63
2018-02-11 11:00:00 6.2 4 Norte 7 Norte 0 -- -- 71
2018-02-11 10:00:00 2.8 0 Calma 5 Sur 0 -- -- 89
2018-02-11 09:00:00 -0.8 0 Calma 3 Nordeste 0 -- -- 96
2018-02-11 08:00:00 -2.1 2 Nordeste 4 Nordeste 0 -- -- 95
2018-02-11 07:00:00 -1.9 0 Calma 2 Este 0 -- -- 94
2018-02-11 06:00:00 -1.5 2 Nordeste 5 Sur 0 -- -- 94
2018-02-11 05:00:00 -1.3 3 Sur 6 Sur 0 -- -- 94
2018-02-11 04:00:00 -1 0 Calma 3 Sur 0 -- -- 93
2018-02-11 03:00:00 -0.2 0 Calma 3 Nordeste 0 -- -- 93
2018-02-11 02:00:00 0.2 0 Calma 6 Sudeste 0 -- -- 91
2018-02-11 01:00:00 1.1 2 Sur 6 Sur 0 -- -- 88
2018-02-11 00:00:00 1.3 0 Calma 5 Este 0 -- -- 86
2018-02-10 23:00:00 2.4 0 Calma 4 Sudeste 0 -- -- 81
2018-02-10 22:00:00 5.2 3 Sudeste 14 Nordeste 0 -- -- 71
2018-02-10 21:00:00 7.1 5 Nordeste 20 Nordeste 0 -- -- 69
2018-02-10 20:00:00 8.2 7 Nordeste 18 Nordeste 0 -- -- 63
2018-02-10 19:00:00 9.6 5 Nordeste 18 Nordeste 0 -- -- 54
2018-02-10 18:00:00 11.5 9 Nordeste 26 Nordeste 0 -- -- 47
2018-02-10 17:00:00 12.1 9 Nordeste 21 Nordeste 0 -- -- 44
2018-02-10 16:00:00 12 9 Este 22 Este 0 -- -- 48
2018-02-10 15:00:00 12 6 Este 19 Sudeste 0 -- -- 49
2018-02-10 14:00:00 11.3 4 Sudeste 15 Este 0 -- -- 51
2018-02-10 13:00:00 10.1 8 Este 22 Este 0 -- -- 54
2018-02-10 12:00:00 9 3 Sudoeste 12 Oeste 0 -- -- 69
2018-02-10 11:00:00 7.5 3 Noroeste 11 Nordeste 0 -- -- 77
2018-02-10 10:00:00 5.2 5 Nordeste 10 Nordeste 0 -- -- 90
2018-02-10 09:00:00 2.6 2 Nordeste 6 Nordeste 0 -- -- 96
2018-02-10 08:00:00 1.7 3 Este 5 Nordeste 0 -- -- 93
2018-02-10 07:00:00 3.2 4 Nordeste 8 Nordeste 0 -- -- 93
2018-02-10 06:00:00 3.1 4 Nordeste 12 Nordeste 0 -- -- 95
2018-02-10 05:00:00 0.5 3 Nordeste 5 Nordeste 0 -- -- 93
2018-02-10 04:00:00 0.5 0 Calma 5 Nordeste 0 -- -- 91
2018-02-10 03:00:00 0.6 0 Calma 3 Nordeste 0 -- -- 92
2018-02-10 02:00:00 0.8 0 Calma 4 Nordeste 0 -- -- 90
2018-02-10 01:00:00 2 0 Calma 2 Sur 0 -- -- 90
2018-02-10 00:00:00 1.7 0 Calma 2 Sur 0 -- -- 87
2018-02-09 23:00:00 2.2 2 Nordeste 4 Este 0 -- -- 85
2018-02-09 22:00:00 3.2 0 Calma 7 Nordeste 0 -- -- 77
2018-02-09 21:00:00 6.2 3 Norte 15 Este 0 -- -- 69
2018-02-09 20:00:00 7.2 5 Este 9 Este 0 -- -- 62
2018-02-09 19:00:00 9.4 4 Nordeste 18 Norte 0 -- -- 55
2018-02-09 18:00:00 10.1 7 Nordeste 14 Norte 0 -- -- 48
2018-02-09 17:00:00 10.2 5 Nordeste 19 Nordeste 0 -- -- 50
2018-02-09 16:00:00 10 7 Norte 18 Norte 0 -- -- 46
2018-02-09 15:00:00 10.3 9 Norte 17 Norte 0 -- -- 39
2018-02-09 14:00:00 9.2 4 Nordeste 19 Norte 0 -- -- 38
2018-02-09 13:00:00 8.2 12 Norte 18 Norte 0 -- -- 42
2018-02-09 12:00:00 5.5 4 Noroeste 8 Oeste 0 -- -- 64
2018-02-09 11:00:00 2.2 0 Calma 5 Oeste 0 -- -- 78
2018-02-09 10:00:00 0 0 Calma 4 Norte 0 -- -- 82
2018-02-09 09:00:00 -4 0 Calma 5 Nordeste 0 -- -- 95
2018-02-09 08:00:00 -5.4 0 Calma 2 Sur 0 -- -- 92
2018-02-09 07:00:00 -5.2 0 Calma 4 Norte 0 -- -- 92
2018-02-09 06:00:00 -5.2 0 Calma 3 Nordeste 0 -- -- 92
2018-02-09 05:00:00 -4.9 2 Nordeste 4 Nordeste 0 -- -- 91
2018-02-09 04:00:00 -4.5 2 Nordeste 2 Nordeste 0 -- -- 91
2018-02-09 03:00:00 -4.3 0 Calma 3 Sur 0 -- -- 90
2018-02-09 02:00:00 -3.8 0 Calma 3 Nordeste 0 -- -- 88
2018-02-09 01:00:00 -3.1 0 Calma 3 Sur 0 -- -- 87
2018-02-09 00:00:00 -2.4 3 Sur 4 Sur 0 -- -- 84
2018-02-08 23:00:00 -1.4 3 Sur 6 Sur 0 -- -- 79
2018-02-08 22:00:00 -0.7 0 Calma 4 Sudeste 0 -- -- 73
2018-02-08 21:00:00 1 3 Este 9 Este 0 -- -- 64
2018-02-08 20:00:00 4.7 4 Nordeste 13 Este 0 -- -- 49
2018-02-08 19:00:00 6.7 5 Este 15 Sudeste 0 -- -- 42
2018-02-08 18:00:00 8.9 7 Nordeste 20 Sudeste 0 -- -- 37
2018-02-08 17:00:00 9.6 8 Este 21 Norte 0 -- -- 36
2018-02-08 16:00:00 9.9 11 Norte 22 Nordeste 0 -- -- 36
2018-02-08 15:00:00 9.9 11 Nordeste 27 Nordeste 0 -- -- 37
2018-02-08 14:00:00 9.6 7 Nordeste 19 Sudeste 0 -- -- 38
2018-02-08 13:00:00 8.8 6 Este 17 Este 0 -- -- 40
2018-02-08 12:00:00 7.5 8 Este 16 Este 0 -- -- 41
2018-02-08 11:00:00 5.8 5 Este 16 Este 0 -- -- 46
2018-02-08 10:00:00 3.1 3 Nordeste 12 Nordeste 0 -- -- 53
2018-02-08 09:00:00 -2.5 3 Norte 6 Norte 0 -- -- 84
2018-02-08 08:00:00 -4 0 Calma 2 Este 0 -- -- 87
2018-02-08 07:00:00 -3.8 0 Calma 5 Este 0 -- -- 86
2018-02-08 06:00:00 -3.4 2 Nordeste 5 Nordeste 0 -- -- 84
2018-02-08 05:00:00 -2.7 0 Calma 8 Nordeste 0 -- -- 80
2018-02-08 04:00:00 -2.2 3 Nordeste 12 Este 0 -- -- 77
2018-02-08 03:00:00 0.1 5 Este 14 Este 0 -- -- 68
2018-02-08 02:00:00 -0.9 5 Este 10 Nordeste 0 -- -- 74
2018-02-08 01:00:00 -1 4 Este 9 Este 0 -- -- 75
2018-02-08 00:00:00 -0.6 0 Calma 6 Sudeste 0 -- -- 74
2018-02-07 23:00:00 -0.1 0 Calma 7 Sudeste 0 -- -- 73
2018-02-07 22:00:00 0.4 2 Sur 10 Este 0 -- -- 70
2018-02-07 21:00:00 1.8 3 Este 13 Sur 0 -- -- 62
2018-02-07 20:00:00 3.8 3 Este 9 Sudeste 0 -- -- 51
2018-02-07 19:00:00 5.3 2 Sudeste 15 Sur 0 -- -- 46
2018-02-07 18:00:00 6.6 4 Sur 22 Sur 0 -- -- 43
2018-02-07 17:00:00 6.9 6 Sudeste 17 Este 0 -- -- 42
2018-02-07 16:00:00 7.7 8 Sudeste 19 Sudeste 0 -- -- 39
2018-02-07 15:00:00 8.2 11 Este 27 Este 0 -- -- 39
2018-02-07 14:00:00 8.7 10 Sur 28 Sur 0 -- -- 39
2018-02-07 13:00:00 7.6 15 Sudeste 26 Sur 0 -- -- 40
2018-02-07 12:00:00 6.6 9 Sur 22 Sudeste 0 -- -- 50
2018-02-07 11:00:00 5.7 7 Sudeste 15 Sur 0 -- -- 55
2018-02-07 10:00:00 3.3 6 Sudeste 13 Sudeste 0 -- -- 65
2018-02-07 09:00:00 1.6 0 Calma 3 Sudeste 0 -- -- 89
2018-02-07 08:00:00 1.6 0 Calma 4 Nordeste 0 -- -- 87
2018-02-07 07:00:00 2 3 Nordeste 6 Nordeste 0 -- -- 86
2018-02-07 06:00:00 2.2 0 Calma 6 Sudeste 0 -- -- 85
2018-02-07 05:00:00 1.9 3 Sur 5 Sur 0 -- -- 85
2018-02-07 04:00:00 2.1 3 Sur 9 Sur 0 -- -- 85
2018-02-07 03:00:00 2.6 0 Calma 7 Sur 0 -- -- 82
2018-02-07 02:00:00 2.9 4 Sur 11 Sur 0 -- -- 80
2018-02-07 01:00:00 2.2 2 Sur 5 Sur 0 -- -- 85
2018-02-07 00:00:00 2.4 0 Calma 5 Noroeste 0 -- -- 82
2018-02-06 23:00:00 4.3 3 Sur 12 Sudeste 0 -- -- 76
2018-02-06 22:00:00 4.9 3 Sur 10 Sudoeste 0 -- -- 70
2018-02-06 21:00:00 4.4 4 Nordeste 14 Norte 0 -- -- 77
2018-02-06 20:00:00 3.5 0 Calma 6 Sudeste 0 -- -- 76
2018-02-06 19:00:00 5.4 3 Sudeste 14 Sudeste 0 -- -- 62
2018-02-06 18:00:00 7.5 4 Este 13 Nordeste 0 -- -- 55
2018-02-06 17:00:00 8.1 9 Norte 21 Nordeste 0 -- -- 54
2018-02-06 16:00:00 8 7 Este 19 Norte 0 -- -- 54
2018-02-06 15:00:00 7.3 4 Sudeste 22 Este 0 -- -- 61
2018-02-06 14:00:00 7.9 8 Sudeste 20 Nordeste 0 -- -- 64
2018-02-06 13:00:00 5.9 10 Este 35 Este 0.2 -- -- 67
2018-02-06 12:00:00 5.9 12 Este 28 Este 0 -- -- 69
2018-02-06 11:00:00 4.8 5 Norte 19 Norte 0 -- -- 75
2018-02-06 10:00:00 4 8 Norte 15 Noroeste 0 -- -- 81
2018-02-06 09:00:00 3.2 3 Norte 17 Nordeste 0 -- -- 85
2018-02-06 08:00:00 3.3 6 Este 17 Este 0 -- -- 84
2018-02-06 07:00:00 3.5 3 Norte 11 Nordeste 0 -- -- 85
2018-02-06 06:00:00 3.4 0 Calma 10 Norte 0 -- -- 84
2018-02-06 05:00:00 3 4 Nordeste 13 Nordeste 0 -- -- 84
2018-02-06 04:00:00 2.7 3 Nordeste 14 Nordeste 0 -- -- 86
2018-02-06 03:00:00 2.7 3 Nordeste 12 Nordeste 0 -- -- 87
2018-02-06 02:00:00 2.4 5 Nordeste 11 Nordeste 0 -- -- 92
2018-02-06 01:00:00 0.8 2 Nordeste 4 Nordeste 0 -- -- 93
2018-02-06 00:00:00 1.2 0 Calma 5 Este 0 -- -- 88
2018-02-05 23:00:00 3.3 0 Calma 4 Este 0 -- -- 87
2018-02-05 22:00:00 3.7 0 Calma 4 Sudeste 0 -- -- 86
2018-02-05 21:00:00 3.9 2 Este 17 Sudeste 0 -- -- 82
2018-02-05 20:00:00 2.5 0 Calma 3 Sudeste 0 -- -- 84
2018-02-05 19:00:00 5.2 0 Calma 9 Noroeste 0 -- -- 77
2018-02-05 18:00:00 6.5 3 Sudeste 9 Nordeste 0 -- -- 63
2018-02-05 17:00:00 7.1 6 Nordeste 14 Nordeste 0 -- -- 62
2018-02-05 16:00:00 6.6 5 Nordeste 17 Norte 0 -- -- 69
2018-02-05 15:00:00 6.8 8 Norte 19 Norte 0 -- -- 69
2018-02-05 14:00:00 5.8 8 Nordeste 17 Norte 0 -- -- 77
2018-02-05 13:00:00 4.2 4 Norte 14 Norte 0.2 -- -- 89
2018-02-05 12:00:00 4.5 8 Nordeste 15 Norte 0 -- -- 82
2018-02-05 11:00:00 4.3 6 Norte 12 Norte 0 -- -- 86
2018-02-05 10:00:00 3.7 5 Norte 9 Norte 0 -- -- 89
2018-02-05 09:00:00 3.1 4 Nordeste 9 Norte 0.2 -- -- 92
2018-02-05 08:00:00 2.9 0 Calma 5 Nordeste 0 -- -- 92
2018-02-05 07:00:00 2.8 0 Calma 9 Nordeste 0 -- -- 92
2018-02-05 06:00:00 2.7 2 Nordeste 6 Este 0 -- -- 91
2018-02-05 05:00:00 2.4 2 Nordeste 4 Nordeste 0 -- -- 91
2018-02-05 04:00:00 1.9 0 Calma 4 Nordeste 0 -- -- 95
2018-02-05 03:00:00 0.8 0 Calma 3 Nordeste 0 -- -- 94
2018-02-05 02:00:00 0.8 0 Calma 6 Nordeste 0 -- -- 90
2018-02-05 01:00:00 1.4 2 Nordeste 8 Nordeste 0 -- -- 92
2018-02-05 00:00:00 1.5 0 Calma 4 Sur 0 -- -- 87
2018-02-04 23:00:00 2.6 0 Calma 11 Nordeste 0 -- -- 86
2018-02-04 22:00:00 2.8 3 Nordeste 9 Nordeste 0 -- -- 83
2018-02-04 21:00:00 3.9 6 Nordeste 17 Este 0 -- -- 78
2018-02-04 20:00:00 4.8 6 Nordeste 28 Este 0 -- -- 75
2018-02-04 19:00:00 6.2 6 Nordeste 18 Nordeste 0 -- -- 67
2018-02-04 18:00:00 8 6 Norte 17 Norte 0 -- -- 59
2018-02-04 17:00:00 7.7 9 Norte 21 Norte 0 -- -- 60
2018-02-04 16:00:00 8.3 12 Norte 24 Norte 0 -- -- 58
2018-02-04 15:00:00 7.1 9 Norte 19 Norte 0 -- -- 63
2018-02-04 14:00:00 7.4 7 Norte 17 Norte 0 -- -- 63
2018-02-04 13:00:00 7.4 7 Norte 10 Norte 0 -- -- 63
2018-02-04 12:00:00 6.5 6 Norte 17 Norte 0 -- -- 71
2018-02-04 11:00:00 6.1 6 Norte 15 Norte 0 -- -- 74
2018-02-04 10:00:00 5.4 2 Nordeste 11 Nordeste 0 -- -- 84
2018-02-04 09:00:00 5 4 Nordeste 16 Nordeste 0 -- -- 87
2018-02-04 08:00:00 5.4 4 Norte 15 Norte 0 -- -- 86
2018-02-04 07:00:00 5.5 4 Nordeste 14 Nordeste 0 -- -- 88
2018-02-04 06:00:00 5.3 3 Nordeste 12 Norte 0.2 -- -- 91
2018-02-04 05:00:00 4.8 0 Calma 5 Noroeste 0 -- -- 89
2018-02-04 04:00:00 4.6 2 Sudoeste 7 Sur 0.2 -- -- 88
2018-02-04 03:00:00 4.2 2 Sudoeste 4 Sur 0.2 -- -- 87
2018-02-04 02:00:00 3.5 3 Sur 6 Sur 0 -- -- 76
2018-02-04 01:00:00 3 3 Sur 6 Sur 0 -- -- 79
2018-02-04 00:00:00 2.3 2 Nordeste 5 Este 0 -- -- 78
2018-02-03 23:00:00 1.3 0 Calma 2 Este 0 -- -- 78
2018-02-03 22:00:00 2 3 Este 5 Sur 0 -- -- 70
2018-02-03 21:00:00 3.8 0 Calma 7 Nordeste 0 -- -- 59
2018-02-03 20:00:00 4.8 0 Calma 8 Nordeste 0 -- -- 55
2018-02-03 19:00:00 8 4 Nordeste 14 Norte 0 -- -- 40
2018-02-03 18:00:00 10.2 7 Norte 19 Norte 0 -- -- 37
2018-02-03 17:00:00 11.5 11 Norte 23 Norte 0 -- -- 36
2018-02-03 16:00:00 11.3 13 Norte 27 Noroeste 0 -- -- 38
2018-02-03 15:00:00 10.9 13 Norte 26 Norte 0 -- -- 40
2018-02-03 14:00:00 10.1 13 Norte 22 Norte 0 -- -- 38
2018-02-03 13:00:00 8.7 8 Norte 14 Norte 0 -- -- 44
2018-02-03 12:00:00 6.2 3 Norte 6 Nordeste 0 -- -- 57
2018-02-03 11:00:00 2.8 3 Oeste 5 Oeste 0 -- -- 71
2018-02-03 10:00:00 0.7 0 Calma 5 Sur 0 -- -- 76
2018-02-03 09:00:00 -3.6 0 Calma 5 Nordeste 0 -- -- 94
2018-02-03 08:00:00 -4.5 3 Nordeste 5 Norte 0 -- -- 92
2018-02-03 07:00:00 -4.2 0 Calma 3 Sur 0 -- -- 92
2018-02-03 06:00:00 -3.9 2 Sudeste 5 Nordeste 0 -- -- 91
2018-02-03 05:00:00 -3.6 0 Calma 4 Nordeste 0 -- -- 90
2018-02-03 04:00:00 -2.9 0 Calma 5 Este 0 -- -- 89
2018-02-03 03:00:00 -2.6 0 Calma 6 Nordeste 0 -- -- 87
2018-02-03 02:00:00 -2.1 0 Calma 6 Norte 0 -- -- 85
2018-02-03 01:00:00 -0.9 2 Sur 8 Este 0 -- -- 82
2018-02-03 00:00:00 0.6 4 Norte 6 Nordeste 0 -- -- 75
2018-02-02 23:00:00 1.3 3 Este 6 Este 0 -- -- 73
2018-02-02 22:00:00 4.8 3 Norte 18 Nordeste 0 -- -- 58
2018-02-02 21:00:00 4 5 Nordeste 8 Este 0 -- -- 60
2018-02-02 20:00:00 5.6 5 Este 14 Nordeste 0 -- -- 53
2018-02-02 19:00:00 7.5 4 Nordeste 23 Norte 0 -- -- 46
2018-02-02 18:00:00 9.4 12 Nordeste 30 Nordeste 0 -- -- 39
2018-02-02 17:00:00 10 15 Nordeste 38 Norte 0 -- -- 38
2018-02-02 16:00:00 9.9 14 Nordeste 33 Norte 0 -- -- 39
2018-02-02 15:00:00 9.9 12 Nordeste 33 Nordeste 0 -- -- 41
2018-02-02 14:00:00 9.1 14 Nordeste 29 Nordeste 0 -- -- 46
2018-02-02 13:00:00 8.6 13 Nordeste 34 Sudeste 0 -- -- 48
2018-02-02 12:00:00 7.5 12 Nordeste 26 Nordeste 0 -- -- 51
2018-02-02 11:00:00 4.7 11 Norte 19 Norte 0 -- -- 73
2018-02-02 10:00:00 2.5 7 Norte 14 Nordeste 0 -- -- 79
2018-02-02 09:00:00 0.9 4 Nordeste 22 Norte 0 -- -- 84
2018-02-02 08:00:00 1 9 Nordeste 19 Nordeste 0 -- -- 85
2018-02-02 07:00:00 0.8 4 Nordeste 18 Nordeste 0 -- -- 87
2018-02-02 06:00:00 1.6 5 Nordeste 15 Nordeste 0 -- -- 86
2018-02-02 05:00:00 2.1 4 Nordeste 18 Nordeste 0 -- -- 86
2018-02-02 04:00:00 2.6 8 Nordeste 19 Norte 0 -- -- 88
2018-02-02 03:00:00 3 5 Norte 17 Nordeste 0 -- -- 86
2018-02-02 02:00:00 4.1 8 Norte 30 Este 0 -- -- 83
2018-02-02 01:00:00 3.5 5 Nordeste 22 Este 0 -- -- 85
2018-02-02 00:00:00 3.7 13 Este 46 Nordeste 0.6 -- -- 83
2018-02-01 23:00:00 7.4 26 Nordeste 53 Nordeste 0 -- -- 64
2018-02-01 22:00:00 7.5 8 Nordeste 20 Norte 0 -- -- 54
2018-02-01 21:00:00 8.4 5 Nordeste 26 Nordeste 0 -- -- 58
2018-02-01 20:00:00 9.7 3 Nordeste 12 Nordeste 0 -- -- 67
2018-02-01 19:00:00 10.3 9 Norte 30 Nordeste 0 -- -- 64
2018-02-01 18:00:00 11.6 17 Nordeste 36 Norte 0 -- -- 59
2018-02-01 17:00:00 13.1 13 Norte 27 Norte 0 -- -- 58
2018-02-01 16:00:00 14.4 9 Noroeste 17 Noroeste 0 -- -- 55
2018-02-01 15:00:00 13.6 4 Oeste 14 Noroeste 0 -- -- 63
2018-02-01 14:00:00 12.2 7 Noroeste 14 Noroeste 0 -- -- 65
2018-02-01 13:00:00 10 2 Sudoeste 4 Noroeste 0 -- -- 78
2018-02-01 12:00:00 6.7 0 Calma 5 Norte 0 -- -- 96
2018-02-01 11:00:00 4.2 0 Calma 4 Oeste 0 -- -- 97
2018-02-01 10:00:00 2.7 0 Calma 3 Oeste 0 -- -- 97
2018-02-01 09:00:00 1.7 0 Calma 4 Nordeste 0 -- -- 97
2018-02-01 08:00:00 1.1 3 Nordeste 4 Nordeste 0 -- -- 97
2018-02-01 07:00:00 1 0 Calma 4 Sudeste 0 -- -- 96
2018-02-01 06:00:00 1.4 0 Calma 5 Sur 0 -- -- 96
2018-02-01 05:00:00 0.9 0 Calma 5 Nordeste 0 -- -- 94
2018-02-01 04:00:00 1.4 0 Calma 5 Sur 0 -- -- 95
2018-02-01 03:00:00 1.8 0 Calma 5 Nordeste 0 -- -- 94
2018-02-01 02:00:00 2.2 0 Calma 3 Nordeste 0 -- -- 93
2018-02-01 01:00:00 2.7 0 Calma 4 Nordeste 0 -- -- 92
2018-02-01 00:00:00 3.7 0 Calma 5 Nordeste 0 -- -- 89
2018-01-31 23:00:00 5.2 4 Este 8 Norte 0 -- -- 87
2018-01-31 22:00:00 5.6 0 Calma 4 Oeste 0 -- -- 86
2018-01-31 21:00:00 6.2 2 Sur 6 Norte 0 -- -- 81
2018-01-31 20:00:00 8.3 3 Este 8 Este 0 -- -- 74
2018-01-31 19:00:00 10.7 4 Nordeste 6 Nordeste 0 -- -- 65
2018-01-31 18:00:00 16.3 2 Nordeste 8 Norte 0 -- -- 49
2018-01-31 17:00:00 16.7 0 Calma 9 Norte 0 -- -- 47
2018-01-31 16:00:00 15.9 6 Norte 10 Norte 0 -- -- 51
2018-01-31 15:00:00 13.4 4 Oeste 9 Oeste 0 -- -- 56
2018-01-31 14:00:00 11.5 0 Calma 5 Oeste 0 -- -- 71
2018-01-31 13:00:00 10.9 0 Calma 8 Oeste 0 -- -- 68
2018-01-31 12:00:00 7.9 2 Sudoeste 6 Oeste 0 -- -- 85
2018-01-31 11:00:00 6.1 0 Calma 6 Norte 0 -- -- 89
2018-01-31 10:00:00 4.6 4 Norte 7 Nordeste 0 -- -- 97
2018-01-31 09:00:00 3.3 3 Nordeste 5 Nordeste 0 -- -- 97
2018-01-31 08:00:00 2.2 0 Calma 3 Sur 0 -- -- 96
2018-01-31 07:00:00 1.8 0 Calma 5 Norte 0 -- -- 95
2018-01-31 06:00:00 2.1 0 Calma 3 Sudeste 0 -- -- 95
2018-01-31 05:00:00 2 0 Calma 2 Sudeste 0 -- -- 94
2018-01-31 04:00:00 2.6 0 Calma 4 Nordeste 0 -- -- 94
2018-01-31 03:00:00 2.9 0 Calma 2 Sudeste 0 -- -- 93
2018-01-31 02:00:00 3.1 0 Calma 3 Sudeste 0 -- -- 92
2018-01-31 01:00:00 3.7 0 Calma 3 Sur 0 -- -- 91
2018-01-31 00:00:00 4.2 0 Calma 3 Sudeste 0 -- -- 89
2018-01-30 23:00:00 4.7 0 Calma 3 Nordeste 0 -- -- 87
2018-01-30 22:00:00 5.2 0 Calma 3 Sur 0 -- -- 85
2018-01-30 21:00:00 6.1 0 Calma 3 Este 0 -- -- 81
2018-01-30 20:00:00 7.2 0 Calma 4 Norte 0 -- -- 76
2018-01-30 19:00:00 9.4 3 Nordeste 5 Nordeste 0 -- -- 64
2018-01-30 18:00:00 13.8 2 Sudeste 12 Sur 0 -- -- 55
2018-01-30 17:00:00 16.2 5 Sur 13 Sur 0 -- -- 40
2018-01-30 16:00:00 17 6 Oeste 17 Oeste 0 -- -- 38
2018-01-30 15:00:00 16.9 8 Sudoeste 18 Sudoeste 0 -- -- 38
2018-01-30 14:00:00 16.2 8 Oeste 15 Oeste 0 -- -- 42
2018-01-30 13:00:00 13.8 3 Oeste 10 Noroeste 0 -- -- 51
2018-01-30 12:00:00 9.9 3 Norte 7 Oeste 0 -- -- 68
2018-01-30 11:00:00 7.4 2 Oeste 5 Sudoeste 0 -- -- 79
2018-01-30 10:00:00 4.5 0 Calma 6 Norte 0 -- -- 90
2018-01-30 09:00:00 2.2 2 Nordeste 7 Norte 0 -- -- 96
2018-01-30 08:00:00 1.4 0 Calma 3 Sur 0 -- -- 95
2018-01-30 07:00:00 1.4 0 Calma 4 Nordeste 0 -- -- 95
2018-01-30 06:00:00 0.9 0 Calma 3 Sudeste 0 -- -- 94
2018-01-30 05:00:00 1.6 3 Sudeste 4 Sur 0 -- -- 95
2018-01-30 04:00:00 1.6 0 Calma 5 Nordeste 0 -- -- 93
2018-01-30 03:00:00 2.5 3 Nordeste 5 Sudeste 0 -- -- 92
2018-01-30 02:00:00 3.3 0 Calma 9 Oeste 0 -- -- 89
2018-01-30 01:00:00 3.5 0 Calma 4 Noroeste 0 -- -- 89
2018-01-30 00:00:00 5 3 Noroeste 9 Noroeste 0 -- -- 85
2018-01-29 23:00:00 5.1 0 Calma 5 Sur 0 -- -- 84
2018-01-29 22:00:00 6.6 2 Este 8 Sudeste 0 -- -- 77
2018-01-29 21:00:00 7.5 0 Calma 5 Sur 0 -- -- 73
2018-01-29 20:00:00 9.2 0 Calma 6 Nordeste 0 -- -- 65
2018-01-29 19:00:00 13.8 0 Calma 23 Sudeste 0 -- -- 49
2018-01-29 18:00:00 16.4 8 Sur 23 Sudeste 0 -- -- 41
2018-01-29 17:00:00 17.3 12 Sur 26 Sur 0 -- -- 39
2018-01-29 16:00:00 17.5 12 Sudeste 31 Sudeste 0 -- -- 41
2018-01-29 15:00:00 17.8 14 Sur 33 Sudeste 0 -- -- 36
2018-01-29 14:00:00 16.2 12 Sur 26 Sur 0 -- -- 41
2018-01-29 13:00:00 15.6 11 Sur 27 Sur 0 -- -- 43
2018-01-29 12:00:00 14.6 14 Sudeste 27 Sudeste 0 -- -- 48
2018-01-29 11:00:00 13.2 11 Sur 33 Sur 0 -- -- 51
2018-01-29 10:00:00 11.3 10 Sur 21 Sudeste 0 -- -- 59
2018-01-29 09:00:00 6.4 3 Noroeste 9 Noroeste 0 -- -- 82
2018-01-29 08:00:00 5.2 4 Este 8 Oeste 0 -- -- 84
2018-01-29 07:00:00 5.8 0 Calma 17 Sudoeste 0 -- -- 81
2018-01-29 06:00:00 5.4 2 Sudeste 18 Sudeste 0 -- -- 80
2018-01-29 05:00:00 5.6 2 Sur 10 Sur 0 -- -- 77
2018-01-29 04:00:00 8.7 7 Sur 20 Sudeste 0 -- -- 67
2018-01-29 03:00:00 6.3 5 Sur 16 Sur 0 -- -- 72
2018-01-29 02:00:00 2.6 0 Calma 8 Sudeste 0 -- -- 84
2018-01-29 01:00:00 4.2 4 Sudeste 10 Sudeste 0 -- -- 77
2018-01-29 00:00:00 2.6 0 Calma 5 Sudeste 0 -- -- 80
2018-01-28 23:00:00 3.6 0 Calma 6 Oeste 0 -- -- 77
2018-01-28 22:00:00 5.2 5 Sudeste 10 Sudeste 0 -- -- 62
2018-01-28 21:00:00 6.3 0 Calma 14 Sudeste 0 -- -- 59
2018-01-28 20:00:00 9.3 8 Sur 31 Sur 0 -- -- 49
2018-01-28 19:00:00 10.7 12 Sur 49 Sur 0 -- -- 44
2018-01-28 18:00:00 12.1 18 Sur 48 Sur 0 -- -- 41
2018-01-28 17:00:00 12.9 24 Sur 50 Sur 0 -- -- 40
2018-01-28 16:00:00 13.6 21 Sur 46 Sur 0 -- -- 38
2018-01-28 15:00:00 13.3 18 Sur 38 Sudeste 0 -- -- 46
2018-01-28 14:00:00 12.2 19 Sur 37 Sur 0 -- -- 50
2018-01-28 13:00:00 11 12 Sur 37 Sur 0 -- -- 59
2018-01-28 12:00:00 9.7 11 Sudeste 34 Sur 0 -- -- 64
2018-01-28 11:00:00 9.5 10 Sudeste 37 Sudeste 0 -- -- 64
2018-01-28 10:00:00 9 9 Este 25 Este 0 -- -- 61
2018-01-28 09:00:00 6.4 3 Oeste 23 Este 0 -- -- 65
2018-01-28 08:00:00 5.8 5 Nordeste 26 Nordeste 0 -- -- 64
2018-01-28 07:00:00 5.7 7 Este 26 Este 0 -- -- 60
2018-01-28 06:00:00 5.6 13 Este 29 Nordeste 0 -- -- 58
2018-01-28 05:00:00 4.8 6 Nordeste 23 Nordeste 0 -- -- 62
2018-01-28 04:00:00 4.6 5 Nordeste 14 Nordeste 0 -- -- 65
2018-01-28 03:00:00 3.9 8 Este 20 Sudeste 0 -- -- 68
2018-01-28 02:00:00 3.4 3 Nordeste 10 Nordeste 0 -- -- 68
2018-01-28 01:00:00 5.9 4 Sudeste 17 Sudeste 0 -- -- 59
2018-01-28 00:00:00 7.2 4 Este 18 Este 0 -- -- 54
2018-01-27 23:00:00 7.4 3 Oeste 13 Este 0 -- -- 53
2018-01-27 22:00:00 6.1 3 Nordeste 14 Norte 0 -- -- 60
2018-01-27 21:00:00 4.5 0 Calma 9 Sudeste 0 -- -- 70
2018-01-27 20:00:00 3.8 2 Este 10 Sudeste 0 -- -- 68
2018-01-27 19:00:00 8 2 Sur 10 Este 0 -- -- 51
2018-01-27 18:00:00 9.6 6 Sudeste 37 Sur 0 -- -- 44
2018-01-27 17:00:00 10.2 7 Sudeste 26 Sudeste 0 -- -- 43
2018-01-27 16:00:00 10.5 12 Sudeste 27 Nordeste 0 -- -- 44
2018-01-27 15:00:00 10.6 6 Este 26 Este 0 -- -- 47
2018-01-27 14:00:00 9.2 7 Este 26 Este 0 -- -- 48
2018-01-27 13:00:00 9.3 11 Este 37 Norte 0 -- -- 49
2018-01-27 12:00:00 9.2 9 Este 31 Nordeste 0 -- -- 48
2018-01-27 11:00:00 8.7 5 Sudeste 22 Este 0 -- -- 53
2018-01-27 10:00:00 6.6 5 Sudoeste 18 Noroeste 0 -- -- 58
2018-01-27 09:00:00 1.6 2 Noroeste 9 Noroeste 0 -- -- 86
2018-01-27 08:00:00 0.5 2 Nordeste 6 Nordeste 0 -- -- 87
2018-01-27 07:00:00 0.7 2 Nordeste 10 Nordeste 0 -- -- 87
2018-01-27 06:00:00 1.8 5 Nordeste 10 Nordeste 0 -- -- 88
2018-01-27 05:00:00 1.9 4 Nordeste 7 Nordeste 0 -- -- 87
2018-01-27 04:00:00 2.5 5 Nordeste 12 Este 0 -- -- 86
2018-01-27 03:00:00 1.9 4 Nordeste 7 Nordeste 0 -- -- 86
2018-01-27 02:00:00 2.9 3 Nordeste 14 Norte 0 -- -- 79
2018-01-27 01:00:00 4.8 4 Nordeste 17 Nordeste 0 -- -- 74
2018-01-27 00:00:00 5.5 6 Nordeste 20 Nordeste 0 -- -- 71
2018-01-26 23:00:00 4.6 4 Norte 11 Nordeste 0 -- -- 76
2018-01-26 22:00:00 3.4 3 Nordeste 8 Norte 0 -- -- 81
2018-01-26 21:00:00 4.3 4 Nordeste 8 Nordeste 0 -- -- 76
2018-01-26 20:00:00 5.4 4 Nordeste 8 Nordeste 0 -- -- 72
2018-01-26 19:00:00 7.9 6 Nordeste 18 Norte 0 -- -- 62
2018-01-26 18:00:00 9.9 10 Nordeste 29 Norte 0 -- -- 53
2018-01-26 17:00:00 10.7 13 Norte 26 Norte 0 -- -- 53
2018-01-26 16:00:00 11.1 13 Nordeste 34 Norte 0 -- -- 47
2018-01-26 15:00:00 10.5 13 Norte 24 Norte 0.2 -- -- 55
2018-01-26 14:00:00 9.6 12 Norte 26 Norte 0 -- -- 60
2018-01-26 13:00:00 8.9 9 Norte 24 Noroeste 0 -- -- 62
2018-01-26 12:00:00 7.8 10 Norte 24 Norte 0 -- -- 69
2018-01-26 11:00:00 5.7 12 Norte 21 Norte 0 -- -- 76
2018-01-26 10:00:00 4 5 Norte 13 Norte 0 -- -- 82
2018-01-26 09:00:00 2.3 4 Norte 18 Norte 0 -- -- 88
2018-01-26 08:00:00 1 8 Nordeste 15 Nordeste 0 -- -- 96
2018-01-26 07:00:00 1.1 2 Este 10 Nordeste 0 -- -- 93
2018-01-26 06:00:00 1.4 4 Sur 12 Norte 0 -- -- 94
2018-01-26 05:00:00 0.8 0 Calma 13 Noroeste 0 -- -- 94
2018-01-26 04:00:00 1.3 0 Calma 9 Norte 0 -- -- 93
2018-01-26 03:00:00 3.3 5 Nordeste 14 Norte 0 -- -- 89
2018-01-26 02:00:00 4.3 4 Nordeste 20 Norte 0 -- -- 89
2018-01-26 01:00:00 5.2 9 Nordeste 28 Norte 0 -- -- 88
2018-01-26 00:00:00 6.1 8 Norte 20 Norte 0 -- -- 88
2018-01-25 23:00:00 5.7 4 Nordeste 11 Norte 0 -- -- 93
2018-01-25 22:00:00 6 6 Norte 14 Norte 0 -- -- 90
2018-01-25 21:00:00 7.4 6 Norte 13 Norte 0 -- -- 90
2018-01-25 20:00:00 7.8 2 Nordeste 27 Nordeste 1 -- -- 92
2018-01-25 19:00:00 8.8 3 Nordeste 12 Nordeste 1.2 -- -- 92
2018-01-25 18:00:00 9.3 6 Noroeste 19 Noroeste 0 -- -- 86
2018-01-25 17:00:00 10.1 9 Noroeste 22 Oeste 0 -- -- 82
2018-01-25 16:00:00 10.4 7 Noroeste 23 Oeste 0.2 -- -- 80
2018-01-25 15:00:00 11.3 11 Oeste 24 Noroeste 0 -- -- 75
2018-01-25 14:00:00 11.5 6 Oeste 22 Oeste 0 -- -- 71
2018-01-25 13:00:00 11.2 8 Noroeste 26 Noroeste 0 -- -- 73
2018-01-25 12:00:00 10.5 6 Noroeste 17 Noroeste 0 -- -- 77
2018-01-25 11:00:00 9.9 7 Noroeste 19 Noroeste 0 -- -- 83
2018-01-25 10:00:00 9.5 4 Noroeste 10 Noroeste 0 -- -- 88
2018-01-25 09:00:00 8 0 Calma 9 Sudeste 0 -- -- 96
2018-01-25 08:00:00 6.6 3 Sur 9 Norte 0 -- -- 96
2018-01-25 07:00:00 7.2 2 Sudeste 9 Sur 0 -- -- 97
2018-01-25 06:00:00 5.9 0 Calma 4 Sur 0 -- -- 97
2018-01-25 05:00:00 4.4 0 Calma 4 Sur 0 -- -- 97
2018-01-25 04:00:00 3.4 0 Calma 2 Sudeste 0 -- -- 95
2018-01-25 03:00:00 4 0 Calma 2 Sur 0 -- -- 95
2018-01-25 02:00:00 3.9 0 Calma 2 Este 0 -- -- 95
2018-01-25 01:00:00 4.1 0 Calma 3 Nordeste 0 -- -- 94
2018-01-25 00:00:00 4.9 0 Calma 0 Calma 0 -- -- 93
2018-01-24 23:00:00 5.5 0 Calma 0 Calma 0 -- -- 91
2018-01-24 22:00:00 6.4 0 Calma 2 Sur 0 -- -- 89
2018-01-24 21:00:00 7.5 0 Calma 4 Norte 0 -- -- 84
2018-01-24 20:00:00 8.8 2 Nordeste 3 Nordeste 0 -- -- 79
2018-01-24 19:00:00 11.5 0 Calma 4 Sudoeste 0 -- -- 69
2018-01-24 18:00:00 16.7 3 Sur 8 Oeste 0 -- -- 56
2018-01-24 17:00:00 19.4 3 Sudoeste 10 Oeste 0 -- -- 45
2018-01-24 16:00:00 19.6 4 Sudoeste 11 Oeste 0 -- -- 43
2018-01-24 15:00:00 19.2 6 Oeste 12 Oeste 0 -- -- 44
2018-01-24 14:00:00 17.7 5 Sudoeste 9 Sudoeste 0 -- -- 50
2018-01-24 13:00:00 13.4 2 Oeste 5 Noroeste 0 -- -- 78
2018-01-24 12:00:00 8.7 2 Oeste 4 Oeste 0 -- -- 98
2018-01-24 11:00:00 5.2 0 Calma 3 Noroeste 0 -- -- 98
2018-01-24 10:00:00 3.3 0 Calma 2 Sudoeste 0 -- -- 98
2018-01-24 09:00:00 2.9 0 Calma 2 Nordeste 0.2 -- -- 97
2018-01-24 08:00:00 2.6 0 Calma 3 Sur 0 -- -- 97
2018-01-24 07:00:00 3 0 Calma 3 Este 0 -- -- 97
2018-01-24 06:00:00 3.1 2 Este 3 Nordeste 0 -- -- 97
2018-01-24 05:00:00 3 0 Calma 2 Sudeste 0 -- -- 97
2018-01-24 04:00:00 1.8 0 Calma 2 Este 0 -- -- 96
2018-01-24 03:00:00 2.3 0 Calma 2 Nordeste 0 -- -- 95
2018-01-24 02:00:00 2.6 0 Calma 2 Nordeste 0 -- -- 95
2018-01-24 01:00:00 3.2 0 Calma 2 Nordeste 0 -- -- 95
2018-01-24 00:00:00 3.7 0 Calma 3 Sudeste 0 -- -- 94
2018-01-23 23:00:00 4.6 0 Calma 4 Norte 0 -- -- 94
2018-01-23 22:00:00 5.4 0 Calma 5 Nordeste 0 -- -- 92
2018-01-23 21:00:00 6.7 3 Nordeste 4 Nordeste 0 -- -- 91
2018-01-23 20:00:00 8.3 0 Calma 4 Noroeste 0 -- -- 86
2018-01-23 19:00:00 11.5 3 Nordeste 4 Noroeste 0 -- -- 76
2018-01-23 18:00:00 17.6 2 Norte 7 Norte 0 -- -- 57
2018-01-23 17:00:00 17.8 4 Norte 9 Noroeste 0 -- -- 55
2018-01-23 16:00:00 16.7 4 Noroeste 8 Noroeste 0 -- -- 59
2018-01-23 15:00:00 14.5 4 Noroeste 8 Noroeste 0 -- -- 69
2018-01-23 14:00:00 11.7 3 Noroeste 8 Sudoeste 0 -- -- 79
2018-01-23 13:00:00 8.5 3 Norte 9 Sudoeste 0 -- -- 95
2018-01-23 12:00:00 6.1 0 Calma 8 Noroeste 0 -- -- 98
2018-01-23 11:00:00 5.1 3 Nordeste 8 Nordeste 0 -- -- 97
2018-01-23 10:00:00 4.5 4 Nordeste 9 Norte 0 -- -- 97
2018-01-23 09:00:00 4.5 4 Nordeste 9 Norte 0 -- -- 97
2018-01-23 08:00:00 4.8 4 Nordeste 10 Nordeste 0 -- -- 96
2018-01-23 07:00:00 5.2 4 Nordeste 10 Norte 0 -- -- 96
2018-01-23 06:00:00 5.4 4 Nordeste 12 Nordeste 0 -- -- 96
2018-01-23 05:00:00 5.7 5 Este 11 Nordeste 0 -- -- 96
2018-01-23 04:00:00 6 3 Nordeste 9 Este 0 -- -- 97
2018-01-23 03:00:00 4.9 3 Nordeste 7 Nordeste 0 -- -- 97
2018-01-23 02:00:00 3.6 3 Nordeste 5 Nordeste 0 -- -- 96
2018-01-23 01:00:00 3.2 2 Norte 6 Nordeste 0 -- -- 93
2018-01-23 00:00:00 4.5 3 Nordeste 9 Nordeste 0 -- -- 92
2018-01-22 23:00:00 4.4 3 Nordeste 9 Nordeste 0 -- -- 92
2018-01-22 22:00:00 5.9 4 Nordeste 10 Norte 0 -- -- 93
2018-01-22 21:00:00 6 4 Nordeste 8 Norte 0 -- -- 89
2018-01-22 20:00:00 8.7 4 Norte 10 Norte 0 -- -- 83
2018-01-22 19:00:00 12.2 4 Nordeste 16 Norte 0 -- -- 75
2018-01-22 18:00:00 15.3 10 Norte 18 Nordeste 0 -- -- 67
2018-01-22 17:00:00 16.6 6 Noroeste 14 Noroeste 0 -- -- 63
2018-01-22 16:00:00 15.4 7 Norte 15 Norte 0 -- -- 70
2018-01-22 15:00:00 12.5 3 Oeste 8 Sudoeste 0 -- -- 81
2018-01-22 14:00:00 10 4 Noroeste 8 Noroeste 0 -- -- 96
2018-01-22 13:00:00 8 0 Calma 8 Norte 0 -- -- 98
2018-01-22 12:00:00 6.6 2 Noroeste 6 Norte 0 -- -- 98
2018-01-22 11:00:00 5.6 0 Calma 4 Nordeste 0 -- -- 98
2018-01-22 10:00:00 5.1 0 Calma 5 Nordeste 0 -- -- 98
2018-01-22 09:00:00 4.8 2 Nordeste 4 Norte 0 -- -- 97
2018-01-22 08:00:00 4.8 0 Calma 3 Norte 0.2 -- -- 97
2018-01-22 07:00:00 4.6 0 Calma 5 Nordeste 0 -- -- 97
2018-01-22 06:00:00 4.3 0 Calma 5 Sur 0 -- -- 97
2018-01-22 05:00:00 3.5 0 Calma 5 Norte 0 -- -- 97
2018-01-22 04:00:00 2.9 0 Calma 4 Nordeste 0 -- -- 96
2018-01-22 03:00:00 3.1 2 Sur 4 Sur 0 -- -- 96
2018-01-22 02:00:00 3.6 0 Calma 8 Sudeste 0 -- -- 95
2018-01-22 01:00:00 4 3 Sudeste 5 Sudeste 0 -- -- 95
2018-01-22 00:00:00 4.7 0 Calma 6 Sur 0 -- -- 94